首页
METAR-TAF:

METAR-TAF

机场 :

Cobb County Airport (McCollum Field)

亚特兰大 / Kennesaw, 喬治亞, 美国

纬度: 34-00-47N, 经度: 084-35-55W, 海拔: 317米

当前天气观测

该预报发布于54分钟前的22:50 UTC
风速8节,风向西北
温度 16°C
湿度 88%
气压 1019 hPa
能見度: 16.1公里
散云层高于1000英尺
阴天层高于11000英尺
小雨

METAR: KRYY 132250Z 32008KT 10SM -RA SCT010 OVC110 16/14 A3008 RMK AO2 PRESRR SLP907 P0008 T01560139 $

时间: 19:44 (23:44 UTC)

预报

该预报发布于6小时和21分钟前的17:23 UTC
预报有效从13日的 18点(UTC)到 14日的 18点(UTC)
风速3节,风向西
能見度: 10公里
多云层高于2500英尺
附近有阵雨
从 13日的 2000点(UTC)
风速4节,风向西转西北
能見度: 10公里
散云层高于2500英尺
多云层高于10000英尺
附近有阵雨
短暂存在
从 13日的 22点(UTC)到 14日的 02点(UTC)
能見度: 8.0公里
多云层高于2500英尺
小阵雨
从 14日的 0200点(UTC)
风速3节,风向多变
能見度: 10公里
多云层高于12000英尺
从 14日的 0700点(UTC)
风速3节,风向西转西北
能見度: 10公里
散云层高于1200英尺
从 14日的 1400点(UTC)
风速5节,风向西北
能見度: 10公里
少量云层高于2500英尺

TAF: KRYY 131723Z 1318/1418 28003KT P6SM VCSH BKN025 FM132000 29004KT P6SM VCSH SCT025 BKN100 TEMPO 1322/1402 5SM -SHRA BKN025 FM140200 VRB03KT P6SM BKN120 FM140700 29003KT P6SM SCT012 FM141400 32005KT P6SM FEW025

超过4000个机场的气象观测和天气预报(METAR&TAF报告)。

可查询的气象台以黄色和红色小点在地图上表示。

将鼠标移到小点上方,可查看气象台名称。

然后点击查看天气观测和预报。

如需切换地图:点击带黑十字的绿色按钮放大地图;点击带横线的绿色按钮缩小地图;或者点击绿色箭头查看邻近地区的地图。


METAR-TAF: